createdAt,value
2022-09-07T00:00:43.303Z,91.89
2022-09-07T00:01:43.333Z,91.49
2022-09-07T00:02:43.335Z,91.78
2022-09-07T00:03:43.279Z,91.49
2022-09-07T00:06:31.212Z,90.88
2022-09-07T00:07:41.821Z,90.88
2022-09-07T00:08:32.223Z,90.43
2022-09-07T00:09:32.231Z,90.23
2022-09-07T00:10:32.204Z,90.03
2022-09-07T00:11:32.220Z,91.03
2022-09-07T00:12:32.183Z,90.53
2022-09-07T00:13:32.229Z,90.43
2022-09-07T00:14:32.167Z,90.63
2022-09-07T00:15:32.182Z,90.33
2022-09-07T00:16:32.230Z,90.37
2022-09-07T00:17:32.144Z,90.27
2022-09-07T00:18:32.142Z,90.07
2022-09-07T00:19:32.145Z,89.16
2022-09-07T00:20:32.158Z,89.76
2022-09-07T00:21:32.117Z,90.47
2022-09-07T00:22:34.764Z,90.53
2022-09-07T00:23:32.124Z,90.58
2022-09-07T00:24:32.077Z,90.17
2022-09-07T00:25:32.270Z,90.37
2022-09-07T00:26:32.101Z,90.47
2022-09-07T00:27:32.064Z,90.47
2022-09-07T00:28:32.194Z,90.58
2022-09-07T00:29:32.057Z,90.47
2022-09-07T00:30:32.045Z,90.78
2022-09-07T00:31:32.080Z,90.47
2022-09-07T00:32:32.004Z,90.67
2022-09-07T00:33:31.997Z,90.78
2022-09-07T00:34:32.016Z,90.47
2022-09-07T00:35:31.984Z,90.37
2022-09-07T00:36:31.965Z,90.47
2022-09-07T00:37:31.966Z,90.17
2022-09-07T00:38:32.088Z,90.17
2022-09-07T00:39:32.033Z,90.17
2022-09-07T00:40:31.941Z,90.27
2022-09-07T00:41:31.927Z,90.43
2022-09-07T00:42:31.921Z,90.33
2022-09-07T00:43:31.932Z,90.03
2022-09-07T00:44:31.965Z,90.23
2022-09-07T00:45:31.902Z,90.47
2022-09-07T00:46:32.163Z,90.67
2022-09-07T00:47:31.882Z,90.88
2022-09-07T00:48:31.929Z,90.88
2022-09-07T00:49:31.910Z,91.42
2022-09-07T00:50:31.848Z,91.83
2022-09-07T00:51:34.487Z,92.03
2022-09-07T00:52:31.848Z,91.93
2022-09-07T00:53:34.134Z,91.32
2022-09-07T00:54:31.861Z,90.92
2022-09-07T00:55:31.840Z,90.82
2022-09-07T00:56:31.816Z,90.92
2022-09-07T00:57:31.789Z,90.92
2022-09-07T00:58:31.875Z,90.72
2022-09-07T00:59:33.951Z,90.41
2022-09-07T01:00:31.773Z,90.31
2022-09-07T01:01:31.923Z,90.41
2022-09-07T01:02:31.945Z,90.01
2022-09-07T01:03:31.732Z,90.21
2022-09-07T01:04:33.683Z,89.81
2022-09-07T01:05:31.722Z,89.40
2022-09-07T01:06:31.706Z,89.30
2022-09-07T01:07:31.690Z,89.61
2022-09-07T01:08:31.964Z,90.01
2022-09-07T01:09:31.687Z,89.91
2022-09-07T01:10:31.699Z,89.70
2022-09-07T01:11:31.683Z,89.50
2022-09-07T01:12:33.324Z,89.81
2022-09-07T01:13:31.646Z,89.81
2022-09-07T01:14:31.650Z,89.70
2022-09-07T01:15:31.807Z,90.11
2022-09-07T01:16:33.057Z,90.52
2022-09-07T01:17:31.636Z,90.66
2022-09-07T01:18:31.718Z,90.25
2022-09-07T01:19:31.610Z,90.66
2022-09-07T01:20:31.581Z,90.76
2022-09-07T01:21:32.184Z,90.56
2022-09-07T01:22:31.575Z,90.66
2022-09-07T01:23:31.569Z,90.66
2022-09-07T01:24:32.130Z,90.45
2022-09-07T01:25:31.781Z,91.27
2022-09-07T01:26:32.724Z,91.16
2022-09-07T01:27:31.520Z,90.96
2022-09-07T01:28:31.691Z,90.96
2022-09-07T01:29:37.930Z,90.76
2022-09-07T01:30:31.498Z,90.66
2022-09-07T01:31:31.566Z,90.56
2022-09-07T01:32:33.199Z,90.80
2022-09-07T01:33:31.484Z,90.80
2022-09-07T01:34:31.487Z,90.70
2022-09-07T01:35:31.460Z,90.70
2022-09-07T01:36:31.463Z,90.80
2022-09-07T01:37:31.431Z,91.11
2022-09-07T01:38:31.615Z,91.71
2022-09-07T01:39:32.289Z,91.41
2022-09-07T01:40:31.416Z,91.11
2022-09-07T01:41:31.431Z,91.11
2022-09-07T01:42:31.400Z,91.11
2022-09-07T01:43:31.433Z,91.20
2022-09-07T01:44:31.402Z,91.51
